createdAt,value
2023-01-23T00:00:56.027Z,21.63
2023-01-23T00:05:18.046Z,22.65
2023-01-23T00:09:39.793Z,20.42
2023-01-23T00:14:03.687Z,21.10
2023-01-23T00:18:25.607Z,21.35
2023-01-23T00:22:47.647Z,22.90
2023-01-23T00:27:09.727Z,19.40
2023-01-23T00:31:38.532Z,21.85
2023-01-23T00:36:01.701Z,21.00
2023-01-23T00:40:26.587Z,20.35
2023-01-23T00:44:48.627Z,22.05
2023-01-23T00:49:10.670Z,21.73
2023-01-23T00:53:32.946Z,20.60
2023-01-23T00:57:55.350Z,22.20
2023-01-23T01:02:17.156Z,20.80
2023-01-23T01:06:39.288Z,22.38
2023-01-23T01:11:01.934Z,21.48
2023-01-23T01:15:24.312Z,22.15
2023-01-23T01:19:46.574Z,21.88
2023-01-23T01:24:09.891Z,22.77
2023-01-23T01:28:33.947Z,22.95
2023-01-23T01:32:56.871Z,22.83
2023-01-23T01:37:20.353Z,29.65
2023-01-23T01:41:42.091Z,23.20
2023-01-23T01:46:20.314Z,24.60
2023-01-23T01:50:43.415Z,21.75
2023-01-23T01:55:06.388Z,22.67
2023-01-23T01:59:33.609Z,24.48
2023-01-23T02:03:55.866Z,24.05
2023-01-23T02:08:41.852Z,24.35
2023-01-23T02:13:38.954Z,23.77
2023-01-23T02:18:00.987Z,24.60
2023-01-23T02:22:49.726Z,25.55
2023-01-23T02:27:11.581Z,25.70
2023-01-23T02:31:33.798Z,25.42
2023-01-23T02:35:56.246Z,25.67
2023-01-23T02:40:21.483Z,27.27
2023-01-23T02:44:44.505Z,24.60
2023-01-23T02:49:09.518Z,26.65
2023-01-23T02:53:31.967Z,24.52
2023-01-23T02:57:53.872Z,25.05
2023-01-23T03:02:16.026Z,28.70
2023-01-23T03:06:38.297Z,25.20
2023-01-23T03:11:04.748Z,27.13
2023-01-23T03:15:27.103Z,27.13
2023-01-23T03:19:49.425Z,24.92
2023-01-23T03:24:13.888Z,23.65
2023-01-23T03:28:54.566Z,23.15
2023-01-23T03:33:16.407Z,24.48
2023-01-23T03:37:38.535Z,25.20
2023-01-23T03:42:00.807Z,21.77
2023-01-23T03:46:25.325Z,22.15
2023-01-23T03:50:47.671Z,22.88
2023-01-23T03:55:10.147Z,23.90
2023-01-23T03:59:33.405Z,24.38
2023-01-23T04:03:55.691Z,23.92
2023-01-23T04:08:17.786Z,24.58
2023-01-23T04:12:45.325Z,23.60
2023-01-23T04:17:11.791Z,25.33
2023-01-23T04:21:33.846Z,24.67
2023-01-23T04:25:56.025Z,29.00
2023-01-23T04:30:18.239Z,27.50
2023-01-23T04:34:41.599Z,24.48
2023-01-23T04:39:05.247Z,23.98
2023-01-23T04:43:28.070Z,24.63
2023-01-23T04:47:50.506Z,28.27
2023-01-23T04:52:12.391Z,25.27
2023-01-23T04:56:39.667Z,24.63
2023-01-23T05:01:07.193Z,26.50
2023-01-23T05:05:32.714Z,26.45
2023-01-23T05:09:56.482Z,24.65
2023-01-23T05:14:19.090Z,24.73
2023-01-23T05:18:42.757Z,24.85
2023-01-23T05:23:04.931Z,22.83
2023-01-23T05:27:35.107Z,24.67
2023-01-23T05:31:57.880Z,21.92
2023-01-23T05:36:40.078Z,22.75
2023-01-23T05:41:03.716Z,22.40
2023-01-23T05:45:44.927Z,22.50
2023-01-23T05:50:20.412Z,25.02
2023-01-23T05:54:42.869Z,22.63
2023-01-23T05:59:06.535Z,23.13
2023-01-23T06:03:37.786Z,23.80
2023-01-23T06:08:32.809Z,23.45
2023-01-23T06:12:55.680Z,24.05
2023-01-23T06:17:18.007Z,24.80
2023-01-23T06:21:40.467Z,24.50
2023-01-23T06:26:03.748Z,24.58
2023-01-23T06:30:26.967Z,25.35
2023-01-23T06:34:50.335Z,24.02
2023-01-23T06:39:15.346Z,23.27
2023-01-23T06:43:38.209Z,26.75
2023-01-23T06:48:05.013Z,23.40
2023-01-23T06:52:27.221Z,23.80
2023-01-23T06:56:49.627Z,24.92
2023-01-23T07:01:16.347Z,24.08
2023-01-23T07:06:08.069Z,24.10
2023-01-23T07:10:30.546Z,23.38
2023-01-23T07:14:52.907Z,24.23
2023-01-23T07:19:20.713Z,24.08
2023-01-23T07:23:42.966Z,24.98
2023-01-23T07:28:05.851Z,25.15
2023-01-23T07:32:27.708Z,23.50
2023-01-23T07:36:49.867Z,24.52
2023-01-23T07:41:11.867Z,24.33
2023-01-23T07:45:33.778Z,24.55
2023-01-23T07:49:55.486Z,24.75
2023-01-23T07:54:17.953Z,23.52
2023-01-23T07:58:39.770Z,24.58
2023-01-23T08:03:01.707Z,25.02
2023-01-23T08:07:24.273Z,24.50
2023-01-23T08:11:46.254Z,25.52
2023-01-23T08:16:08.824Z,24.58
2023-01-23T08:20:30.882Z,27.23
2023-01-23T08:24:52.967Z,25.35
2023-01-23T08:29:15.009Z,28.83
2023-01-23T08:33:38.736Z,26.98
2023-01-23T08:38:02.688Z,24.88
2023-01-23T08:42:25.889Z,26.00
2023-01-23T08:46:48.055Z,27.42
2023-01-23T08:51:13.203Z,28.65
2023-01-23T08:55:36.368Z,26.00
2023-01-23T08:59:58.430Z,26.83
2023-01-23T09:04:20.409Z,26.90
2023-01-23T09:08:43.126Z,26.48
2023-01-23T09:13:05.566Z,25.67
2023-01-23T09:17:28.007Z,25.90
2023-01-23T09:21:49.926Z,24.42
2023-01-23T09:26:14.096Z,24.98
2023-01-23T09:30:37.238Z,22.75
2023-01-23T09:34:59.427Z,22.85
2023-01-23T09:39:22.292Z,23.17
2023-01-23T09:44:05.438Z,25.45
2023-01-23T09:48:44.372Z,21.48
2023-01-23T09:53:17.172Z,23.77
2023-01-23T09:58:01.508Z,23.88
2023-01-23T10:02:26.767Z,24.15
2023-01-23T10:07:19.153Z,22.35
2023-01-23T10:12:06.746Z,23.85
2023-01-23T10:16:55.960Z,24.80
2023-01-23T10:21:44.507Z,23.70
2023-01-23T10:26:47.766Z,24.08
2023-01-23T10:31:57.357Z,23.77
2023-01-23T10:36:54.698Z,22.60
2023-01-23T10:41:21.776Z,22.00
2023-01-23T10:45:47.437Z,22.35
2023-01-23T10:50:10.687Z,23.08
2023-01-23T10:54:47.222Z,21.85
2023-01-23T10:59:22.673Z,22.77
2023-01-23T11:03:46.067Z,24.63
2023-01-23T11:08:38.724Z,22.70
2023-01-23T11:13:01.290Z,23.02
2023-01-23T11:17:33.598Z,24.67
2023-01-23T11:22:20.566Z,24.67
2023-01-23T11:26:42.467Z,24.35
2023-01-23T11:31:15.055Z,24.52
2023-01-23T11:36:06.586Z,25.33
2023-01-23T11:40:28.280Z,24.63
2023-01-23T11:44:51.454Z,23.90
2023-01-23T11:49:27.266Z,23.92
2023-01-23T11:54:05.721Z,24.05
2023-01-23T11:58:49.846Z,23.63
2023-01-23T12:03:37.109Z,26.45
2023-01-23T12:08:18.407Z,28.15
2023-01-23T12:12:52.546Z,24.55
2023-01-23T12:17:27.013Z,22.80
2023-01-23T12:22:14.732Z,24.42
2023-01-23T12:26:46.807Z,23.08
2023-01-23T12:31:41.214Z,25.83
2023-01-23T12:36:48.560Z,24.77
2023-01-23T12:41:46.067Z,25.20
2023-01-23T12:46:35.545Z,23.65
2023-01-23T12:51:14.464Z,22.67
2023-01-23T12:55:58.774Z,22.00
2023-01-23T13:00:39.292Z,22.15
2023-01-23T13:05:07.573Z,21.95
2023-01-23T13:09:50.151Z,20.85
2023-01-23T13:14:23.301Z,25.75
2023-01-23T13:19:20.886Z,20.90
2023-01-23T13:23:43.488Z,20.58
2023-01-23T13:28:50.633Z,21.17
2023-01-23T13:33:15.687Z,22.42
2023-01-23T13:37:40.814Z,21.27
2023-01-23T13:42:15.074Z,21.48
2023-01-23T14:20:26.251Z,29.83
2023-01-23T14:24:55.228Z,29.23
2023-01-23T14:29:26.086Z,31.13
2023-01-23T14:33:49.658Z,31.23
2023-01-23T14:38:27.127Z,29.38
2023-01-23T14:43:09.731Z,31.23
2023-01-23T14:47:39.391Z,34.85
2023-01-23T14:52:07.086Z,30.60
2023-01-23T14:56:36.990Z,29.33
2023-01-23T15:01:01.553Z,34.92
2023-01-23T15:05:28.752Z,30.42
2023-01-23T15:09:50.587Z,36.63
2023-01-23T15:14:33.327Z,29.20
2023-01-23T15:19:06.575Z,31.42
2023-01-23T15:23:37.951Z,35.88
2023-01-23T15:27:59.849Z,31.30
2023-01-23T15:32:26.629Z,29.05
2023-01-23T15:36:57.897Z,32.15
2023-01-23T15:41:33.856Z,38.28
2023-01-23T15:45:56.679Z,52.47
2023-01-23T15:50:18.620Z,33.30
2023-01-23T15:54:40.767Z,30.88
2023-01-23T15:59:05.088Z,41.65
2023-01-23T16:04:04.499Z,49.55
2023-01-23T16:09:12.791Z,32.75
2023-01-23T16:14:40.687Z,35.88
2023-01-23T16:20:19.828Z,40.42
2023-01-23T16:25:56.970Z,43.78
2023-01-23T16:31:36.550Z,35.38
2023-01-23T16:38:25.469Z,42.88
2023-01-23T16:44:05.097Z,36.83
2023-01-23T17:00:56.910Z,48.83
2023-01-23T17:11:36.537Z,106.35
2023-01-23T17:17:31.394Z,40.15
2023-01-23T17:40:33.923Z,39.03
2023-01-23T17:52:46.488Z,35.92
2023-01-23T18:03:02.752Z,39.08
2023-01-23T18:07:24.989Z,38.65
2023-01-23T18:11:52.582Z,38.15
2023-01-23T18:16:28.910Z,38.55
2023-01-23T18:20:54.846Z,37.42
2023-01-23T18:25:19.984Z,37.90
2023-01-23T18:30:14.692Z,37.00
2023-01-23T18:34:42.632Z,38.22
2023-01-23T18:39:36.193Z,34.30
2023-01-23T18:44:15.990Z,33.38
2023-01-23T18:48:42.395Z,34.08
2023-01-23T18:53:36.310Z,35.30
2023-01-23T18:58:26.742Z,37.28
2023-01-23T19:02:52.789Z,36.50
2023-01-23T19:07:20.091Z,36.75
2023-01-23T19:12:26.154Z,35.63
2023-01-23T19:17:08.576Z,34.85
2023-01-23T19:21:32.010Z,34.58
2023-01-23T19:25:54.305Z,34.25
2023-01-23T19:30:17.162Z,35.42
2023-01-23T19:34:39.863Z,33.53
2023-01-23T19:39:06.818Z,34.03
2023-01-23T19:43:28.963Z,32.08
2023-01-23T19:47:53.457Z,34.58
2023-01-23T19:52:16.395Z,33.72
2023-01-23T19:56:39.501Z,33.00
2023-01-23T20:01:01.623Z,32.97
2023-01-23T20:05:24.585Z,34.25
2023-01-23T20:09:46.803Z,34.08
2023-01-23T20:14:08.951Z,31.67
2023-01-23T20:18:31.252Z,31.42
2023-01-23T20:22:54.316Z,33.33
2023-01-23T20:27:16.521Z,33.20
2023-01-23T20:31:38.672Z,31.38
2023-01-23T20:36:01.480Z,31.40
2023-01-23T20:40:23.410Z,33.78
2023-01-23T20:44:45.301Z,32.88
2023-01-23T20:49:09.110Z,32.55
2023-01-23T20:53:31.862Z,31.60
2023-01-23T20:58:12.931Z,31.88
2023-01-23T21:02:35.045Z,31.80
2023-01-23T21:06:57.631Z,31.05
2023-01-23T21:11:20.976Z,33.63
2023-01-23T21:15:43.117Z,32.35
2023-01-23T21:20:05.583Z,30.58
2023-01-23T21:24:27.715Z,30.38
2023-01-23T21:28:51.874Z,31.70
2023-01-23T21:33:13.854Z,28.50
2023-01-23T21:37:36.159Z,29.08
2023-01-23T21:42:02.694Z,27.55
2023-01-23T21:46:29.687Z,28.10
2023-01-23T21:51:15.771Z,28.85
2023-01-23T21:55:44.283Z,30.00
2023-01-23T22:00:27.152Z,26.90
2023-01-23T22:04:54.577Z,28.85
2023-01-23T22:09:27.434Z,25.63
2023-01-23T22:13:56.318Z,26.02
2023-01-23T22:18:30.710Z,25.42
2023-01-23T22:22:54.009Z,26.55
2023-01-23T22:27:32.691Z,26.55
2023-01-23T22:31:57.366Z,25.83
2023-01-23T22:36:21.134Z,26.05
2023-01-23T22:41:06.435Z,26.42
2023-01-23T22:45:29.306Z,24.30
2023-01-23T22:49:51.252Z,23.25
2023-01-23T22:54:13.413Z,24.27
2023-01-23T22:58:37.359Z,23.33
2023-01-23T23:02:59.199Z,23.40
2023-01-23T23:07:21.251Z,23.92
2023-01-23T23:11:44.252Z,23.25
2023-01-23T23:16:17.953Z,22.70
2023-01-23T23:20:39.911Z,21.90
2023-01-23T23:25:02.111Z,23.08
2023-01-23T23:29:24.302Z,22.80
2023-01-23T23:33:45.902Z,21.85
2023-01-23T23:38:07.962Z,21.13
2023-01-23T23:42:29.780Z,20.92
2023-01-23T23:46:51.945Z,20.85
2023-01-23T23:51:18.807Z,19.10
2023-01-23T23:55:40.666Z,20.42
